sensor_id;sensor_type;location;lat;lon;timestamp;P1;durP1;ratioP1;P2;durP2;ratioP2
80101;SDS011;69407;44.966;19.622;2023-06-10T00:00:11;5.43;;;3.17;;
80101;SDS011;69407;44.966;19.622;2023-06-10T00:02:39;5.45;;;3.40;;
80101;SDS011;69407;44.966;19.622;2023-06-10T00:05:05;5.88;;;3.38;;
80101;SDS011;69407;44.966;19.622;2023-06-10T00:07:30;9.65;;;3.22;;
80101;SDS011;69407;44.966;19.622;2023-06-10T00:09:56;6.43;;;3.70;;
80101;SDS011;69407;44.966;19.622;2023-06-10T00:12:22;5.78;;;2.97;;
80101;SDS011;69407;44.966;19.622;2023-06-10T00:14:47;9.38;;;3.40;;
80101;SDS011;69407;44.966;19.622;2023-06-10T00:17:15;7.55;;;3.17;;
80101;SDS011;69407;44.966;19.622;2023-06-10T00:19:40;7.78;;;3.90;;
80101;SDS011;69407;44.966;19.622;2023-06-10T00:22:15;11.13;;;3.60;;
80101;SDS011;69407;44.966;19.622;2023-06-10T00:24:41;6.00;;;3.08;;
80101;SDS011;69407;44.966;19.622;2023-06-10T00:27:07;8.63;;;4.18;;
80101;SDS011;69407;44.966;19.622;2023-06-10T00:29:33;7.68;;;3.42;;
80101;SDS011;69407;44.966;19.622;2023-06-10T00:31:58;8.18;;;3.10;;
80101;SDS011;69407;44.966;19.622;2023-06-10T00:34:24;8.55;;;4.13;;
80101;SDS011;69407;44.966;19.622;2023-06-10T00:36:50;6.93;;;3.00;;
80101;SDS011;69407;44.966;19.622;2023-06-10T00:39:15;8.68;;;4.53;;
80101;SDS011;69407;44.966;19.622;2023-06-10T00:41:41;6.68;;;3.28;;
80101;SDS011;69407;44.966;19.622;2023-06-10T00:44:07;10.10;;;4.28;;
80101;SDS011;69407;44.966;19.622;2023-06-10T00:46:33;6.95;;;3.97;;
80101;SDS011;69407;44.966;19.622;2023-06-10T00:48:59;5.75;;;3.28;;
80101;SDS011;69407;44.966;19.622;2023-06-10T00:51:25;7.82;;;3.72;;
80101;SDS011;69407;44.966;19.622;2023-06-10T00:53:51;9.68;;;4.00;;
80101;SDS011;69407;44.966;19.622;2023-06-10T00:56:18;9.27;;;3.65;;
80101;SDS011;69407;44.966;19.622;2023-06-10T00:58:43;7.35;;;3.67;;
80101;SDS011;69407;44.966;19.622;2023-06-10T01:01:09;7.03;;;3.55;;
80101;SDS011;69407;44.966;19.622;2023-06-10T01:03:36;6.97;;;3.88;;
80101;SDS011;69407;44.966;19.622;2023-06-10T01:08:52;7.00;;;4.20;;
80101;SDS011;69407;44.966;19.622;2023-06-10T01:11:40;8.32;;;5.13;;
80101;SDS011;69407;44.966;19.622;2023-06-10T01:14:12;17.40;;;5.32;;
80101;SDS011;69407;44.966;19.622;2023-06-10T01:16:39;14.48;;;6.10;;
80101;SDS011;69407;44.966;19.622;2023-06-10T01:19:06;11.57;;;5.72;;
80101;SDS011;69407;44.966;19.622;2023-06-10T01:21:32;11.40;;;4.43;;
80101;SDS011;69407;44.966;19.622;2023-06-10T01:23:58;8.27;;;4.75;;
80101;SDS011;69407;44.966;19.622;2023-06-10T01:26:28;9.98;;;5.57;;
80101;SDS011;69407;44.966;19.622;2023-06-10T01:28:59;12.63;;;4.50;;
80101;SDS011;69407;44.966;19.622;2023-06-10T01:31:43;9.15;;;4.68;;
80101;SDS011;69407;44.966;19.622;2023-06-10T01:34:26;10.98;;;5.18;;
80101;SDS011;69407;44.966;19.622;2023-06-10T01:36:53;17.17;;;5.95;;
80101;SDS011;69407;44.966;19.622;2023-06-10T01:39:22;12.68;;;6.18;;
80101;SDS011;69407;44.966;19.622;2023-06-10T01:41:50;12.50;;;7.57;;
80101;SDS011;69407;44.966;19.622;2023-06-10T01:44:18;14.15;;;7.18;;
80101;SDS011;69407;44.966;19.622;2023-06-10T01:46:46;11.77;;;6.82;;
80101;SDS011;69407;44.966;19.622;2023-06-10T01:49:12;11.60;;;5.40;;
80101;SDS011;69407;44.966;19.622;2023-06-10T01:51:38;9.05;;;5.35;;
80101;SDS011;69407;44.966;19.622;2023-06-10T01:54:03;11.43;;;6.18;;
80101;SDS011;69407;44.966;19.622;2023-06-10T01:56:29;12.98;;;8.30;;
80101;SDS011;69407;44.966;19.622;2023-06-10T01:58:54;13.77;;;7.25;;
80101;SDS011;69407;44.966;19.622;2023-06-10T02:01:24;13.38;;;7.43;;
80101;SDS011;69407;44.966;19.622;2023-06-10T02:03:54;13.00;;;7.15;;
80101;SDS011;69407;44.966;19.622;2023-06-10T02:06:19;12.93;;;7.35;;
80101;SDS011;69407;44.966;19.622;2023-06-10T02:08:45;9.88;;;6.85;;
80101;SDS011;69407;44.966;19.622;2023-06-10T02:11:10;10.45;;;6.60;;
80101;SDS011;69407;44.966;19.622;2023-06-10T02:13:37;11.75;;;6.97;;
80101;SDS011;69407;44.966;19.622;2023-06-10T02:16:03;14.20;;;6.20;;
80101;SDS011;69407;44.966;19.622;2023-06-10T02:18:29;11.63;;;6.38;;
80101;SDS011;69407;44.966;19.622;2023-06-10T02:20:54;10.95;;;5.00;;
80101;SDS011;69407;44.966;19.622;2023-06-10T02:23:20;7.32;;;4.82;;
80101;SDS011;69407;44.966;19.622;2023-06-10T02:25:45;7.93;;;5.53;;
80101;SDS011;69407;44.966;19.622;2023-06-10T02:28:12;8.35;;;4.43;;
80101;SDS011;69407;44.966;19.622;2023-06-10T02:30:41;8.52;;;5.07;;
80101;SDS011;69407;44.966;19.622;2023-06-10T02:33:07;10.32;;;5.20;;
80101;SDS011;69407;44.966;19.622;2023-06-10T02:35:37;7.97;;;4.75;;
80101;SDS011;69407;44.966;19.622;2023-06-10T02:38:03;7.97;;;4.30;;
80101;SDS011;69407;44.966;19.622;2023-06-10T02:40:29;8.30;;;4.43;;
80101;SDS011;69407;44.966;19.622;2023-06-10T02:42:54;9.63;;;4.90;;
80101;SDS011;69407;44.966;19.622;2023-06-10T02:45:20;7.03;;;2.88;;
80101;SDS011;69407;44.966;19.622;2023-06-10T02:47:45;6.95;;;2.70;;
80101;SDS011;69407;44.966;19.622;2023-06-10T02:50:11;4.90;;;2.70;;
80101;SDS011;69407;44.966;19.622;2023-06-10T02:52:36;5.70;;;2.65;;
80101;SDS011;69407;44.966;19.622;2023-06-10T02:55:02;4.03;;;2.20;;
80101;SDS011;69407;44.966;19.622;2023-06-10T02:57:28;4.55;;;2.20;;
80101;SDS011;69407;44.966;19.622;2023-06-10T02:59:53;5.88;;;2.05;;
80101;SDS011;69407;44.966;19.622;2023-06-10T03:02:18;3.50;;;1.90;;
80101;SDS011;69407;44.966;19.622;2023-06-10T03:04:45;3.92;;;1.83;;
80101;SDS011;69407;44.966;19.622;2023-06-10T03:07:10;7.28;;;1.77;;
80101;SDS011;69407;44.966;19.622;2023-06-10T03:09:36;5.57;;;1.77;;
80101;SDS011;69407;44.966;19.622;2023-06-10T03:12:02;5.50;;;1.50;;
80101;SDS011;69407;44.966;19.622;2023-06-10T03:14:28;5.95;;;2.40;;
80101;SDS011;69407;44.966;19.622;2023-06-10T03:16:53;4.38;;;1.70;;
80101;SDS011;69407;44.966;19.622;2023-06-10T03:19:19;4.05;;;1.77;;
80101;SDS011;69407;44.966;19.622;2023-06-10T03:21:49;5.68;;;2.00;;
80101;SDS011;69407;44.966;19.622;2023-06-10T03:24:19;4.68;;;1.92;;
80101;SDS011;69407;44.966;19.622;2023-06-10T03:26:45;3.13;;;2.00;;
80101;SDS011;69407;44.966;19.622;2023-06-10T03:29:11;5.15;;;1.80;;
80101;SDS011;69407;44.966;19.622;2023-06-10T03:31:36;3.85;;;1.80;;
80101;SDS011;69407;44.966;19.622;2023-06-10T03:34:03;4.95;;;1.85;;
80101;SDS011;69407;44.966;19.622;2023-06-10T03:36:29;5.32;;;2.47;;
80101;SDS011;69407;44.966;19.622;2023-06-10T03:38:55;5.30;;;2.17;;
80101;SDS011;69407;44.966;19.622;2023-06-10T03:41:22;4.85;;;2.20;;
80101;SDS011;69407;44.966;19.622;2023-06-10T03:43:47;4.38;;;2.05;;
80101;SDS011;69407;44.966;19.622;2023-06-10T03:46:13;2.92;;;1.63;;
80101;SDS011;69407;44.966;19.622;2023-06-10T03:48:40;2.20;;;1.27;;
80101;SDS011;69407;44.966;19.622;2023-06-10T03:51:06;4.20;;;1.50;;
80101;SDS011;69407;44.966;19.622;2023-06-10T03:53:31;3.38;;;1.00;;
80101;SDS011;69407;44.966;19.622;2023-06-10T03:55:57;2.00;;;0.88;;
80101;SDS011;69407;44.966;19.622;2023-06-10T03:58:22;4.97;;;0.70;;
80101;SDS011;69407;44.966;19.622;2023-06-10T04:00:48;5.05;;;1.30;;
80101;SDS011;69407;44.966;19.622;2023-06-10T04:03:14;5.50;;;0.85;;
80101;SDS011;69407;44.966;19.622;2023-06-10T04:05:40;1.80;;;0.60;;
80101;SDS011;69407;44.966;19.622;2023-06-10T04:08:07;3.65;;;1.00;;
80101;SDS011;69407;44.966;19.622;2023-06-10T04:10:33;3.60;;;1.40;;
80101;SDS011;69407;44.966;19.622;2023-06-10T04:12:59;3.38;;;1.10;;
80101;SDS011;69407;44.966;19.622;2023-06-10T04:15:24;3.13;;;1.35;;
80101;SDS011;69407;44.966;19.622;2023-06-10T04:17:50;5.00;;;1.42;;
80101;SDS011;69407;44.966;19.622;2023-06-10T04:20:16;4.43;;;1.58;;
80101;SDS011;69407;44.966;19.622;2023-06-10T04:22:41;3.50;;;1.17;;
80101;SDS011;69407;44.966;19.622;2023-06-10T04:25:08;2.40;;;1.00;;
80101;SDS011;69407;44.966;19.622;2023-06-10T04:27:34;5.85;;;1.27;;
80101;SDS011;69407;44.966;19.622;2023-06-10T04:30:00;3.13;;;1.38;;
80101;SDS011;69407;44.966;19.622;2023-06-10T04:32:26;2.63;;;1.55;;
80101;SDS011;69407;44.966;19.622;2023-06-10T04:34:51;2.75;;;1.20;;
80101;SDS011;69407;44.966;19.622;2023-06-10T04:37:17;2.28;;;0.57;;
80101;SDS011;69407;44.966;19.622;2023-06-10T04:39:43;1.85;;;0.52;;
80101;SDS011;69407;44.966;19.622;2023-06-10T04:42:08;2.65;;;1.40;;
80101;SDS011;69407;44.966;19.622;2023-06-10T04:44:34;1.98;;;0.70;;
80101;SDS011;69407;44.966;19.622;2023-06-10T04:46:59;1.60;;;0.60;;
80101;SDS011;69407;44.966;19.622;2023-06-10T04:49:25;3.13;;;0.63;;
80101;SDS011;69407;44.966;19.622;2023-06-10T04:51:51;3.45;;;0.40;;
80101;SDS011;69407;44.966;19.622;2023-06-10T04:54:16;2.63;;;0.60;;
80101;SDS011;69407;44.966;19.622;2023-06-10T04:56:42;1.52;;;0.40;;
80101;SDS011;69407;44.966;19.622;2023-06-10T04:59:07;1.40;;;0.70;;
80101;SDS011;69407;44.966;19.622;2023-06-10T05:01:32;2.28;;;0.85;;
80101;SDS011;69407;44.966;19.622;2023-06-10T05:03:58;3.45;;;0.95;;
80101;SDS011;69407;44.966;19.622;2023-06-10T05:06:23;2.75;;;0.98;;
80101;SDS011;69407;44.966;19.622;2023-06-10T05:08:49;1.73;;;0.50;;
80101;SDS011;69407;44.966;19.622;2023-06-10T05:11:14;3.45;;;1.30;;
80101;SDS011;69407;44.966;19.622;2023-06-10T05:13:41;3.47;;;1.05;;
80101;SDS011;69407;44.966;19.622;2023-06-10T05:16:06;2.65;;;1.40;;
80101;SDS011;69407;44.966;19.622;2023-06-10T05:18:32;2.50;;;1.05;;
80101;SDS011;69407;44.966;19.622;2023-06-10T05:20:58;2.08;;;0.93;;
80101;SDS011;69407;44.966;19.622;2023-06-10T05:23:24;3.20;;;1.52;;
80101;SDS011;69407;44.966;19.622;2023-06-10T05:25:49;3.17;;;1.10;;
80101;SDS011;69407;44.966;19.622;2023-06-10T05:28:14;6.40;;;1.73;;
80101;SDS011;69407;44.966;19.622;2023-06-10T05:30:40;3.63;;;1.02;;
80101;SDS011;69407;44.966;19.622;2023-06-10T05:33:05;3.40;;;1.50;;
80101;SDS011;69407;44.966;19.622;2023-06-10T05:35:31;2.10;;;1.08;;
80101;SDS011;69407;44.966;19.622;2023-06-10T05:37:56;4.40;;;1.42;;
80101;SDS011;69407;44.966;19.622;2023-06-10T05:40:22;4.57;;;1.27;;
80101;SDS011;69407;44.966;19.622;2023-06-10T05:42:48;2.35;;;1.02;;
80101;SDS011;69407;44.966;19.622;2023-06-10T05:45:13;2.92;;;1.20;;
80101;SDS011;69407;44.966;19.622;2023-06-10T05:47:39;2.60;;;1.40;;
80101;SDS011;69407;44.966;19.622;2023-06-10T05:50:05;3.10;;;0.95;;
80101;SDS011;69407;44.966;19.622;2023-06-10T05:52:35;3.05;;;1.08;;
80101;SDS011;69407;44.966;19.622;2023-06-10T05:55:04;7.35;;;1.50;;
80101;SDS011;69407;44.966;19.622;2023-06-10T05:57:30;9.38;;;1.55;;
80101;SDS011;69407;44.966;19.622;2023-06-10T05:59:56;3.00;;;1.25;;
80101;SDS011;69407;44.966;19.622;2023-06-10T06:02:22;3.83;;;1.48;;
80101;SDS011;69407;44.966;19.622;2023-06-10T06:04:48;6.30;;;1.70;;
80101;SDS011;69407;44.966;19.622;2023-06-10T06:07:13;5.72;;;1.88;;
80101;SDS011;69407;44.966;19.622;2023-06-10T06:09:39;5.18;;;1.55;;
80101;SDS011;69407;44.966;19.622;2023-06-10T06:12:05;3.97;;;1.75;;
80101;SDS011;69407;44.966;19.622;2023-06-10T06:14:32;4.47;;;1.63;;
80101;SDS011;69407;44.966;19.622;2023-06-10T06:17:01;4.45;;;1.88;;
80101;SDS011;69407;44.966;19.622;2023-06-10T06:19:27;4.20;;;1.98;;
80101;SDS011;69407;44.966;19.622;2023-06-10T06:21:52;5.82;;;2.80;;
80101;SDS011;69407;44.966;19.622;2023-06-10T06:24:18;4.60;;;2.70;;
80101;SDS011;69407;44.966;19.622;2023-06-10T06:26:43;5.40;;;2.25;;
80101;SDS011;69407;44.966;19.622;2023-06-10T06:29:08;5.13;;;3.28;;
80101;SDS011;69407;44.966;19.622;2023-06-10T06:31:34;4.95;;;3.10;;
80101;SDS011;69407;44.966;19.622;2023-06-10T06:33:59;6.05;;;3.25;;
80101;SDS011;69407;44.966;19.622;2023-06-10T06:36:25;10.68;;;3.53;;
80101;SDS011;69407;44.966;19.622;2023-06-10T06:38:50;4.38;;;2.95;;
80101;SDS011;69407;44.966;19.622;2023-06-10T06:41:16;8.80;;;3.25;;
80101;SDS011;69407;44.966;19.622;2023-06-10T06:43:42;5.70;;;3.38;;
80101;SDS011;69407;44.966;19.622;2023-06-10T06:46:08;5.55;;;3.08;;
80101;SDS011;69407;44.966;19.622;2023-06-10T06:48:33;7.25;;;4.22;;
80101;SDS011;69407;44.966;19.622;2023-06-10T06:50:59;6.57;;;3.50;;
80101;SDS011;69407;44.966;19.622;2023-06-10T06:53:25;5.15;;;2.85;;
80101;SDS011;69407;44.966;19.622;2023-06-10T06:55:50;5.97;;;3.50;;
80101;SDS011;69407;44.966;19.622;2023-06-10T06:58:16;5.18;;;3.67;;
80101;SDS011;69407;44.966;19.622;2023-06-10T07:00:41;6.60;;;3.72;;
80101;SDS011;69407;44.966;19.622;2023-06-10T07:03:07;8.30;;;3.45;;
80101;SDS011;69407;44.966;19.622;2023-06-10T07:05:32;5.88;;;3.90;;
80101;SDS011;69407;44.966;19.622;2023-06-10T07:07:58;6.75;;;3.53;;
80101;SDS011;69407;44.966;19.622;2023-06-10T07:10:24;7.30;;;4.63;;
80101;SDS011;69407;44.966;19.622;2023-06-10T07:12:50;5.78;;;3.72;;
80101;SDS011;69407;44.966;19.622;2023-06-10T07:15:16;5.75;;;3.63;;
80101;SDS011;69407;44.966;19.622;2023-06-10T07:17:41;5.72;;;4.00;;
80101;SDS011;69407;44.966;19.622;2023-06-10T07:20:07;11.15;;;4.20;;
80101;SDS011;69407;44.966;19.622;2023-06-10T07:22:33;7.55;;;4.13;;
80101;SDS011;69407;44.966;19.622;2023-06-10T07:24:58;7.43;;;4.00;;
80101;SDS011;69407;44.966;19.622;2023-06-10T07:27:24;10.07;;;4.25;;
80101;SDS011;69407;44.966;19.622;2023-06-10T07:29:50;8.27;;;3.20;;
80101;SDS011;69407;44.966;19.622;2023-06-10T07:32:16;5.45;;;3.45;;
80101;SDS011;69407;44.966;19.622;2023-06-10T07:34:41;5.00;;;3.70;;
80101;SDS011;69407;44.966;19.622;2023-06-10T07:37:06;4.95;;;3.03;;
80101;SDS011;69407;44.966;19.622;2023-06-10T07:39:32;4.57;;;3.30;;
80101;SDS011;69407;44.966;19.622;2023-06-10T07:41:59;7.10;;;2.75;;
80101;SDS011;69407;44.966;19.622;2023-06-10T07:44:24;4.40;;;3.80;;
80101;SDS011;69407;44.966;19.622;2023-06-10T07:46:50;4.75;;;2.83;;
80101;SDS011;69407;44.966;19.622;2023-06-10T07:49:15;5.93;;;2.72;;
80101;SDS011;69407;44.966;19.622;2023-06-10T07:51:41;4.05;;;2.33;;
80101;SDS011;69407;44.966;19.622;2023-06-10T07:54:06;4.90;;;2.08;;
80101;SDS011;69407;44.966;19.622;2023-06-10T07:56:32;4.15;;;2.92;;
80101;SDS011;69407;44.966;19.622;2023-06-10T07:58:57;3.70;;;2.17;;
80101;SDS011;69407;44.966;19.622;2023-06-10T08:01:23;3.10;;;2.75;;
80101;SDS011;69407;44.966;19.622;2023-06-10T08:03:49;4.43;;;2.75;;
80101;SDS011;69407;44.966;19.622;2023-06-10T08:06:14;3.72;;;3.22;;
80101;SDS011;69407;44.966;19.622;2023-06-10T08:08:42;3.92;;;1.88;;
80101;SDS011;69407;44.966;19.622;2023-06-10T08:11:09;3.70;;;2.72;;
80101;SDS011;69407;44.966;19.622;2023-06-10T08:16:01;2.85;;;2.65;;
80101;SDS011;69407;44.966;19.622;2023-06-10T08:18:27;2.53;;;2.20;;
80101;SDS011;69407;44.966;19.622;2023-06-10T08:20:52;4.18;;;1.33;;
80101;SDS011;69407;44.966;19.622;2023-06-10T08:23:18;3.15;;;1.52;;
80101;SDS011;69407;44.966;19.622;2023-06-10T08:25:44;3.63;;;2.05;;
80101;SDS011;69407;44.966;19.622;2023-06-10T08:28:10;2.38;;;1.42;;
80101;SDS011;69407;44.966;19.622;2023-06-10T08:30:35;2.35;;;1.75;;
80101;SDS011;69407;44.966;19.622;2023-06-10T08:33:01;3.20;;;1.80;;
80101;SDS011;69407;44.966;19.622;2023-06-10T08:35:26;2.53;;;1.70;;
80101;SDS011;69407;44.966;19.622;2023-06-10T08:37:52;2.80;;;1.73;;
80101;SDS011;69407;44.966;19.622;2023-06-10T08:40:17;2.97;;;2.00;;
80101;SDS011;69407;44.966;19.622;2023-06-10T08:42:45;1.58;;;1.00;;
80101;SDS011;69407;44.966;19.622;2023-06-10T08:45:17;2.30;;;1.50;;
80101;SDS011;69407;44.966;19.622;2023-06-10T08:47:48;2.00;;;1.35;;
80101;SDS011;69407;44.966;19.622;2023-06-10T08:50:17;2.78;;;1.27;;
80101;SDS011;69407;44.966;19.622;2023-06-10T08:52:44;1.70;;;1.15;;
80101;SDS011;69407;44.966;19.622;2023-06-10T08:55:13;2.20;;;1.30;;
80101;SDS011;69407;44.966;19.622;2023-06-10T08:57:44;3.20;;;1.38;;
80101;SDS011;69407;44.966;19.622;2023-06-10T09:00:10;2.08;;;1.15;;
80101;SDS011;69407;44.966;19.622;2023-06-10T09:02:38;2.28;;;1.92;;
80101;SDS011;69407;44.966;19.622;2023-06-10T09:05:04;3.08;;;1.63;;
80101;SDS011;69407;44.966;19.622;2023-06-10T09:07:30;3.13;;;1.77;;
80101;SDS011;69407;44.966;19.622;2023-06-10T09:09:56;2.67;;;2.25;;
80101;SDS011;69407;44.966;19.622;2023-06-10T09:12:24;3.15;;;1.40;;
80101;SDS011;69407;44.966;19.622;2023-06-10T09:14:49;2.33;;;1.27;;
80101;SDS011;69407;44.966;19.622;2023-06-10T09:17:15;3.88;;;2.00;;
80101;SDS011;69407;44.966;19.622;2023-06-10T09:19:41;2.45;;;2.13;;
80101;SDS011;69407;44.966;19.622;2023-06-10T09:22:09;4.10;;;2.50;;
80101;SDS011;69407;44.966;19.622;2023-06-10T09:24:35;3.38;;;1.50;;
80101;SDS011;69407;44.966;19.622;2023-06-10T09:27:08;3.53;;;1.83;;
80101;SDS011;69407;44.966;19.622;2023-06-10T09:32:19;3.38;;;1.67;;
80101;SDS011;69407;44.966;19.622;2023-06-10T09:34:46;2.05;;;1.65;;
80101;SDS011;69407;44.966;19.622;2023-06-10T09:37:12;3.88;;;1.90;;
80101;SDS011;69407;44.966;19.622;2023-06-10T09:39:39;3.22;;;1.65;;
80101;SDS011;69407;44.966;19.622;2023-06-10T09:42:26;2.30;;;2.10;;
80101;SDS011;69407;44.966;19.622;2023-06-10T09:44:51;4.05;;;1.90;;
80101;SDS011;69407;44.966;19.622;2023-06-10T09:47:20;4.05;;;1.67;;
80101;SDS011;69407;44.966;19.622;2023-06-10T09:49:48;2.67;;;1.85;;
80101;SDS011;69407;44.966;19.622;2023-06-10T09:52:13;2.78;;;1.80;;
80101;SDS011;69407;44.966;19.622;2023-06-10T09:54:39;2.08;;;1.65;;
80101;SDS011;69407;44.966;19.622;2023-06-10T09:57:08;3.65;;;1.98;;
80101;SDS011;69407;44.966;19.622;2023-06-10T09:59:37;4.80;;;1.90;;
80101;SDS011;69407;44.966;19.622;2023-06-10T10:02:03;6.85;;;2.03;;
80101;SDS011;69407;44.966;19.622;2023-06-10T10:04:29;2.30;;;1.92;;
80101;SDS011;69407;44.966;19.622;2023-06-10T10:06:55;2.85;;;1.80;;
80101;SDS011;69407;44.966;19.622;2023-06-10T10:09:21;3.00;;;1.88;;
80101;SDS011;69407;44.966;19.622;2023-06-10T10:11:46;3.40;;;2.00;;
80101;SDS011;69407;44.966;19.622;2023-06-10T10:14:13;3.00;;;1.90;;
80101;SDS011;69407;44.966;19.622;2023-06-10T10:16:41;3.70;;;2.25;;
80101;SDS011;69407;44.966;19.622;2023-06-10T10:19:10;4.00;;;2.00;;
80101;SDS011;69407;44.966;19.622;2023-06-10T10:21:44;3.28;;;1.98;;
80101;SDS011;69407;44.966;19.622;2023-06-10T10:24:21;3.45;;;1.95;;
80101;SDS011;69407;44.966;19.622;2023-06-10T10:26:48;2.20;;;1.58;;
80101;SDS011;69407;44.966;19.622;2023-06-10T10:31:43;3.97;;;1.83;;
80101;SDS011;69407;44.966;19.622;2023-06-10T10:36:44;3.25;;;1.67;;
80101;SDS011;69407;44.966;19.622;2023-06-10T10:39:11;2.55;;;1.73;;
80101;SDS011;69407;44.966;19.622;2023-06-10T10:41:37;3.28;;;2.10;;
80101;SDS011;69407;44.966;19.622;2023-06-10T10:44:04;2.97;;;1.73;;
80101;SDS011;69407;44.966;19.622;2023-06-10T10:46:54;2.85;;;1.65;;
80101;SDS011;69407;44.966;19.622;2023-06-10T10:49:19;2.65;;;1.92;;
80101;SDS011;69407;44.966;19.622;2023-06-10T10:52:11;3.30;;;1.75;;
80101;SDS011;69407;44.966;19.622;2023-06-10T10:54:36;2.40;;;2.20;;
80101;SDS011;69407;44.966;19.622;2023-06-10T11:04:57;5.97;;;2.67;;
80101;SDS011;69407;44.966;19.622;2023-06-10T11:07:24;3.38;;;2.25;;
80101;SDS011;69407;44.966;19.622;2023-06-10T11:09:57;3.25;;;1.73;;
80101;SDS011;69407;44.966;19.622;2023-06-10T11:15:10;2.97;;;1.42;;
80101;SDS011;69407;44.966;19.622;2023-06-10T11:17:36;3.72;;;1.88;;
80101;SDS011;69407;44.966;19.622;2023-06-10T11:20:01;2.85;;;2.17;;
80101;SDS011;69407;44.966;19.622;2023-06-10T11:22:27;3.58;;;1.73;;
80101;SDS011;69407;44.966;19.622;2023-06-10T11:24:53;16.83;;;9.30;;
80101;SDS011;69407;44.966;19.622;2023-06-10T11:27:19;5.10;;;3.30;;
80101;SDS011;69407;44.966;19.622;2023-06-10T11:32:50;2.50;;;1.75;;
80101;SDS011;69407;44.966;19.622;2023-06-10T11:35:19;3.65;;;2.15;;
80101;SDS011;69407;44.966;19.622;2023-06-10T11:37:46;2.28;;;1.55;;
80101;SDS011;69407;44.966;19.622;2023-06-10T11:40:13;3.95;;;2.03;;
80101;SDS011;69407;44.966;19.622;2023-06-10T11:42:40;2.58;;;1.27;;
80101;SDS011;69407;44.966;19.622;2023-06-10T11:45:06;4.03;;;2.10;;
80101;SDS011;69407;44.966;19.622;2023-06-10T11:47:33;2.05;;;1.52;;
80101;SDS011;69407;44.966;19.622;2023-06-10T11:49:59;1.98;;;1.10;;
80101;SDS011;69407;44.966;19.622;2023-06-10T11:52:31;1.67;;;1.33;;
80101;SDS011;69407;44.966;19.622;2023-06-10T11:54:58;2.15;;;1.20;;
80101;SDS011;69407;44.966;19.622;2023-06-10T11:57:24;2.17;;;1.65;;
80101;SDS011;69407;44.966;19.622;2023-06-10T11:59:50;2.65;;;1.60;;
80101;SDS011;69407;44.966;19.622;2023-06-10T12:02:16;3.13;;;0.98;;
80101;SDS011;69407;44.966;19.622;2023-06-10T12:04:42;1.90;;;1.33;;
80101;SDS011;69407;44.966;19.622;2023-06-10T12:07:07;2.80;;;1.75;;
80101;SDS011;69407;44.966;19.622;2023-06-10T12:09:33;2.60;;;1.52;;
80101;SDS011;69407;44.966;19.622;2023-06-10T12:11:59;3.00;;;1.65;;
80101;SDS011;69407;44.966;19.622;2023-06-10T12:17:21;3.75;;;2.30;;
80101;SDS011;69407;44.966;19.622;2023-06-10T12:19:48;1.88;;;1.52;;
80101;SDS011;69407;44.966;19.622;2023-06-10T12:22:14;5.53;;;4.00;;
80101;SDS011;69407;44.966;19.622;2023-06-10T12:24:57;5.45;;;2.35;;
80101;SDS011;69407;44.966;19.622;2023-06-10T12:27:28;3.17;;;2.53;;
80101;SDS011;69407;44.966;19.622;2023-06-10T12:29:55;10.38;;;6.00;;
80101;SDS011;69407;44.966;19.622;2023-06-10T12:35:24;5.95;;;3.47;;
80101;SDS011;69407;44.966;19.622;2023-06-10T12:38:00;2.05;;;1.50;;
80101;SDS011;69407;44.966;19.622;2023-06-10T12:40:38;4.35;;;2.28;;
80101;SDS011;69407;44.966;19.622;2023-06-10T12:43:05;3.60;;;2.55;;
80101;SDS011;69407;44.966;19.622;2023-06-10T12:45:32;3.25;;;2.38;;
80101;SDS011;69407;44.966;19.622;2023-06-10T12:50:40;4.55;;;3.10;;
80101;SDS011;69407;44.966;19.622;2023-06-10T12:53:07;7.03;;;3.53;;
80101;SDS011;69407;44.966;19.622;2023-06-10T12:55:34;3.25;;;2.60;;
80101;SDS011;69407;44.966;19.622;2023-06-10T12:58:00;5.20;;;2.78;;
80101;SDS011;69407;44.966;19.622;2023-06-10T13:00:28;3.60;;;2.22;;
80101;SDS011;69407;44.966;19.622;2023-06-10T13:02:55;4.28;;;2.60;;
80101;SDS011;69407;44.966;19.622;2023-06-10T13:05:21;4.00;;;1.98;;
80101;SDS011;69407;44.966;19.622;2023-06-10T13:07:47;5.05;;;2.72;;
80101;SDS011;69407;44.966;19.622;2023-06-10T13:10:13;6.10;;;2.92;;
80101;SDS011;69407;44.966;19.622;2023-06-10T13:12:41;3.38;;;2.70;;
80101;SDS011;69407;44.966;19.622;2023-06-10T13:15:07;2.88;;;2.30;;
80101;SDS011;69407;44.966;19.622;2023-06-10T13:17:33;2.72;;;1.90;;
80101;SDS011;69407;44.966;19.622;2023-06-10T13:20:04;5.90;;;2.75;;
80101;SDS011;69407;44.966;19.622;2023-06-10T13:22:31;3.72;;;1.98;;
80101;SDS011;69407;44.966;19.622;2023-06-10T13:25:01;3.00;;;2.20;;
80101;SDS011;69407;44.966;19.622;2023-06-10T13:27:31;3.95;;;2.47;;
80101;SDS011;69407;44.966;19.622;2023-06-10T13:29:57;3.80;;;2.25;;
80101;SDS011;69407;44.966;19.622;2023-06-10T13:32:23;3.80;;;2.33;;
80101;SDS011;69407;44.966;19.622;2023-06-10T13:34:48;5.28;;;2.90;;
80101;SDS011;69407;44.966;19.622;2023-06-10T13:37:14;4.20;;;2.28;;
80101;SDS011;69407;44.966;19.622;2023-06-10T13:39:43;4.57;;;2.05;;
80101;SDS011;69407;44.966;19.622;2023-06-10T13:42:08;3.88;;;2.75;;
80101;SDS011;69407;44.966;19.622;2023-06-10T13:44:34;4.28;;;3.15;;
80101;SDS011;69407;44.966;19.622;2023-06-10T13:47:01;6.13;;;2.88;;
80101;SDS011;69407;44.966;19.622;2023-06-10T13:49:27;4.72;;;2.90;;
80101;SDS011;69407;44.966;19.622;2023-06-10T13:51:53;4.40;;;2.28;;
80101;SDS011;69407;44.966;19.622;2023-06-10T13:54:20;13.90;;;3.75;;
80101;SDS011;69407;44.966;19.622;2023-06-10T13:56:46;5.32;;;3.63;;
80101;SDS011;69407;44.966;19.622;2023-06-10T13:59:12;8.40;;;6.38;;
80101;SDS011;69407;44.966;19.622;2023-06-10T14:01:37;6.95;;;4.13;;
80101;SDS011;69407;44.966;19.622;2023-06-10T14:04:03;4.22;;;3.40;;
80101;SDS011;69407;44.966;19.622;2023-06-10T14:06:29;6.15;;;5.03;;
80101;SDS011;69407;44.966;19.622;2023-06-10T14:08:55;4.30;;;2.15;;
80101;SDS011;69407;44.966;19.622;2023-06-10T14:11:21;9.52;;;4.65;;
80101;SDS011;69407;44.966;19.622;2023-06-10T14:13:46;4.43;;;2.60;;
80101;SDS011;69407;44.966;19.622;2023-06-10T14:16:12;4.88;;;2.80;;
80101;SDS011;69407;44.966;19.622;2023-06-10T14:18:38;5.32;;;3.28;;
80101;SDS011;69407;44.966;19.622;2023-06-10T14:21:03;4.43;;;2.58;;
80101;SDS011;69407;44.966;19.622;2023-06-10T14:23:29;8.90;;;6.78;;
80101;SDS011;69407;44.966;19.622;2023-06-10T14:25:54;6.90;;;3.08;;
80101;SDS011;69407;44.966;19.622;2023-06-10T14:28:20;6.13;;;4.47;;
80101;SDS011;69407;44.966;19.622;2023-06-10T14:30:45;8.93;;;6.10;;
80101;SDS011;69407;44.966;19.622;2023-06-10T14:33:11;37.55;;;16.88;;
80101;SDS011;69407;44.966;19.622;2023-06-10T14:35:36;81.22;;;17.60;;
80101;SDS011;69407;44.966;19.622;2023-06-10T14:38:02;167.75;;;29.00;;
80101;SDS011;69407;44.966;19.622;2023-06-10T14:40:28;52.88;;;12.00;;
80101;SDS011;69407;44.966;19.622;2023-06-10T14:42:57;90.10;;;20.08;;
80101;SDS011;69407;44.966;19.622;2023-06-10T14:45:23;57.22;;;12.50;;
80101;SDS011;69407;44.966;19.622;2023-06-10T14:47:50;9.38;;;3.05;;
80101;SDS011;69407;44.966;19.622;2023-06-10T14:50:15;4.85;;;2.63;;
80101;SDS011;69407;44.966;19.622;2023-06-10T14:52:41;5.78;;;1.80;;
80101;SDS011;69407;44.966;19.622;2023-06-10T14:55:07;20.35;;;3.78;;
80101;SDS011;69407;44.966;19.622;2023-06-10T14:57:33;46.92;;;17.95;;
80101;SDS011;69407;44.966;19.622;2023-06-10T14:59:58;50.50;;;22.20;;
80101;SDS011;69407;44.966;19.622;2023-06-10T15:02:23;44.90;;;18.80;;
80101;SDS011;69407;44.966;19.622;2023-06-10T15:04:49;9.88;;;4.55;;